Time;durP1;ratioP1;P1;durP2;ratioP2;P2;SDS_P1;SDS_P2;PMS_P1;PMS_P2;Temp;Humidity;BMP_temperature;BMP_pressure;BME280_temperature;BME280_humidity;BME280_pressure;Samples;Min_cycle;Max_cycle;Signal;HPM_P1;HPM_P2
2022/10/17 04:58:18;;;;;;;;;10.00;8.50;;;;;17.22;76.01;101173.44;5454843;22;49951;-80
2022/10/17 05:00:43;;;;;;;;;7.75;7.50;;;;;17.75;76.31;101292.91;5007105;28;50014;-78
2022/10/17 05:03:30;;;;;;;;;12.50;11.25;;;;;18.80;76.60;101444.31;5010443;28;49979;-82
2022/10/17 05:05:55;;;;;;;;;11.00;10.00;;;;;17.58;75.99;101247.75;5009981;28;50592;-80
2022/10/17 05:08:20;;;;;;;;;7.75;7.75;;;;;18.25;76.65;101369.06;5008345;28;50064;-77
2022/10/17 05:10:46;;;;;;;;;9.00;9.00;;;;;18.69;77.20;101470.03;5007972;28;49782;-79
2022/10/17 05:13:11;;;;;;;;;7.25;7.25;;;;;18.01;77.62;101375.25;5003569;28;50509;-81
2022/10/17 05:15:37;;;;;;;;;8.00;8.00;;;;;18.04;77.64;101356.63;5011812;28;49760;-79
2022/10/17 05:18:04;;;;;;;;;8.50;8.50;;;;;18.19;78.36;101372.59;5001625;28;49826;-81
2022/10/17 05:20:32;;;;;;;;;9.00;8.00;;;;;18.36;78.31;101398.28;5010128;28;49717;-78
2022/10/17 05:22:59;;;;;;;;;6.50;6.50;;;;;18.30;78.32;101378.78;5002374;28;49844;-83
2022/10/17 05:25:24;;;;;;;;;7.50;6.00;;;;;18.86;78.79;101475.34;5019240;28;51558;-78
2022/10/17 05:27:50;;;;;;;;;11.25;10.00;;;;;18.79;78.88;101474.47;5014983;28;49962;-76
2022/10/17 05:30:15;;;;;;;;;7.75;7.25;;;;;18.18;78.60;101368.16;5012014;28;49852;-74
2022/10/17 05:32:40;;;;;;;;;12.00;10.00;;;;;18.19;78.81;101380.56;5011630;28;49806;-77
2022/10/17 05:35:06;;;;;;;;;7.75;7.75;;;;;18.72;79.10;101478.03;5012122;28;50215;-80
2022/10/17 05:37:31;;;;;;;;;8.50;8.50;;;;;18.52;79.32;101429.25;5013093;28;49841;-78
2022/10/17 05:39:57;;;;;;;;;12.75;12.50;;;;;18.61;79.90;101479.75;5013704;28;50033;-78
2022/10/17 05:42:23;;;;;;;;;10.75;9.00;;;;;17.74;79.46;101317.69;5014529;28;49851;-76
2022/10/17 05:44:53;;;;;;;;;9.00;9.00;;;;;17.54;79.72;101299.06;5012270;28;50767;-81
2022/10/17 05:47:18;;;;;;;;;10.00;10.00;;;;;17.70;79.57;101307.97;5011519;28;49695;-79
2022/10/17 05:49:44;;;;;;;;;11.25;10.00;;;;;17.37;79.89;101275.19;5011516;28;50435;-80
2022/10/17 05:52:09;;;;;;;;;13.00;9.00;;;;;18.76;80.75;101525.00;5006483;28;49634;-78
2022/10/17 05:54:34;;;;;;;;;12.50;11.25;;;;;18.76;80.32;101505.50;5009293;28;50057;-78
2022/10/17 05:57:00;;;;;;;;;12.50;11.00;;;;;18.18;80.70;101423.97;5009788;28;49716;-77
2022/10/17 05:59:26;;;;;;;;;13.00;12.00;;;;;18.65;80.53;101486.91;5011260;28;49739;-80
2022/10/17 06:01:52;;;;;;;;;18.00;17.25;;;;;18.65;81.37;101481.59;5011616;28;49756;-77
2022/10/17 06:04:21;;;;;;;;;12.00;9.00;;;;;18.67;81.59;101484.25;5009726;28;51762;-80
2022/10/17 06:06:46;;;;;;;;;11.25;10.75;;;;;17.36;81.49;101246.84;5009692;28;49760;-76
2022/10/17 06:09:12;;;;;;;;;12.00;11.00;;;;;17.92;81.41;101384.09;5011178;28;49884;-79
2022/10/17 06:11:37;;;;;;;;;13.00;12.25;;;;;18.27;81.25;101413.34;5011246;28;49761;-75
2022/10/17 06:14:04;;;;;;;;;10.00;10.00;;;;;18.56;81.20;101481.56;5000004;28;50451;-77
2022/10/17 06:16:29;;;;;;;;;11.00;8.00;;;;;18.40;81.32;101454.06;5022041;28;49869;-79
2022/10/17 06:18:54;;;;;;;;;11.75;9.75;;;;;17.78;81.53;101372.59;5010732;28;49567;-75
2022/10/17 06:21:23;;;;;;;;;11.25;11.00;;;;;17.86;81.62;101384.13;5011196;28;49842;-77
2022/10/17 06:23:49;;;;;;;;;9.00;8.50;;;;;18.51;82.24;101491.28;5010288;28;51263;-75
2022/10/17 06:26:15;;;;;;;;;10.25;9.75;;;;;18.49;82.15;101501.94;5010675;28;49843;-76
2022/10/17 06:28:40;;;;;;;;;12.50;10.75;;;;;18.14;81.97;101439.91;5016732;28;49767;-76
2022/10/17 06:31:08;;;;;;;;;11.00;10.75;;;;;18.12;82.27;101454.94;5030727;28;49932;-80
2022/10/17 06:33:33;;;;;;;;;9.25;8.75;;;;;17.73;82.65;101399.13;5015380;28;50964;-76
2022/10/17 06:36:03;;;;;;;;;10.00;10.00;;;;;17.87;82.53;101444.31;5024179;28;50044;-82
2022/10/17 06:38:29;;;;;;;;;10.25;9.50;;;;;18.46;82.69;101560.44;5006977;28;49896;-78
2022/10/17 06:41:03;;;;;;;;;8.50;8.50;;;;;17.16;82.52;101331.72;5006085;28;49828;-80
2022/10/17 06:43:29;;;;;;;;;11.50;11.50;;;;;18.12;82.92;101492.16;5011543;28;50535;-77
2022/10/17 06:45:54;;;;;;;;;9.00;9.00;;;;;16.92;82.06;101296.28;5018179;28;49647;-83
2022/10/17 06:48:19;;;;;;;;;13.50;12.25;;;;;18.50;82.37;101559.53;5018665;28;49643;-77
2022/10/17 06:50:45;;;;;;;;;12.00;12.00;;;;;18.31;82.28;101504.56;5019614;28;49767;-78
2022/10/17 06:53:20;;;;;;;;;;;;;;;;;;;;;
2022/10/17 06:55:54;;;;;;;;;11.75;11.50;;;;;18.56;82.15;101559.56;5003500;28;75775;-78
2022/10/17 06:58:19;;;;;;;;;9.75;9.75;;;;;18.37;81.95;101536.50;5003125;28;49749;-75
2022/10/17 07:00:45;;;;;;;;;13.00;11.25;;;;;17.62;81.84;101407.94;5009205;28;49846;-80
2022/10/17 07:03:10;;;;;;;;;10.00;9.00;;;;;18.61;81.67;101572.84;5027907;28;51512;-84
2022/10/17 07:05:36;;;;;;;;;13.25;8.00;;;;;18.19;82.02;101529.38;5003486;28;50022;-76
2022/10/17 07:08:03;;;;;;;;;12.25;12.25;;;;;18.45;82.19;101563.09;5002565;28;49835;-76
2022/10/17 07:10:29;;;;;;;;;9.25;8.25;;;;;18.30;82.21;101545.34;5009975;28;49851;-77
2022/10/17 07:12:54;;;;;;;;;9.25;9.25;;;;;18.06;81.63;101490.41;5011564;28;51770;-84
2022/10/17 07:15:19;;;;;;;;;10.25;10.25;;;;;18.70;81.68;101634.06;5015340;28;49832;-76
2022/10/17 07:17:49;;;;;;;;;11.00;10.00;;;;;18.74;81.63;101624.31;5013940;28;49877;-78
2022/10/17 07:20:15;;;;;;;;;8.00;6.00;;;;;17.49;81.54;101396.41;5012794;28;49677;-76
2022/10/17 07:22:40;;;;;;;;;9.25;9.00;;;;;18.08;81.25;101501.91;5010617;28;50850;-76
2022/10/17 07:25:06;;;;;;;;;9.75;9.75;;;;;17.74;81.40;101438.06;5010671;28;49758;-76
2022/10/17 07:27:31;;;;;;;;;11.00;9.00;;;;;18.92;81.30;101674.00;5008305;28;49657;-80
2022/10/17 07:29:57;;;;;;;;;15.75;9.00;;;;;18.34;80.97;101564.84;5012763;28;49827;-77
2022/10/17 07:32:23;;;;;;;;;12.25;11.25;;;;;17.80;80.66;101431.00;5013928;28;50062;-82
2022/10/17 07:34:48;;;;;;;;;8.00;8.00;;;;;17.49;80.14;101385.78;5009668;28;50138;-78
2022/10/17 07:37:14;;;;;;;;;7.50;7.50;;;;;19.19;80.48;101699.72;5009756;28;49962;-77
2022/10/17 07:39:39;;;;;;;;;8.50;8.50;;;;;18.30;80.12;101497.50;5008762;28;49789;-78
2022/10/17 07:42:06;;;;;;;;;7.50;7.50;;;;;19.10;79.66;101644.72;5013817;28;49880;-78
2022/10/17 07:44:32;;;;;;;;;9.75;9.75;;;;;19.33;79.44;101692.63;5016558;28;49873;-77
2022/10/17 07:46:57;;;;;;;;;8.00;8.00;;;;;18.87;79.15;101600.38;5017551;28;49825;-78
2022/10/17 07:49:22;;;;;;;;;9.00;8.25;;;;;18.86;79.34;101587.97;5022064;28;49685;-78
2022/10/17 07:51:48;;;;;;;;;11.50;9.50;;;;;18.66;79.65;101584.41;5018115;28;51596;-83
2022/10/17 07:54:14;;;;;;;;;9.25;8.00;;;;;17.81;79.03;101448.72;5024116;28;49896;-82
2022/10/17 07:56:39;;;;;;;;;8.75;8.25;;;;;19.38;79.05;101702.38;5022657;28;49444;-78
2022/10/17 07:59:04;;;;;;;;;9.50;7.50;;;;;19.04;79.10;101642.94;5000611;28;49696;-77
2022/10/17 08:01:30;;;;;;;;;11.00;11.00;;;;;19.43;78.94;101740.56;5012908;28;51097;-78
2022/10/17 08:03:57;;;;;;;;;9.50;9.50;;;;;17.73;78.96;101440.72;5001912;28;49714;-81
2022/10/17 08:06:30;;;;;;;;;9.50;8.25;;;;;19.08;78.95;101663.34;5013494;28;50225;-84
2022/10/17 08:08:57;;;;;;;;;10.50;9.50;;;;;19.28;79.17;101705.94;5019502;28;50299;-78
2022/10/17 08:11:24;;;;;;;;;7.00;6.75;;;;;17.84;78.55;101438.97;5037239;28;51087;-77
2022/10/17 08:13:49;;;;;;;;;9.75;8.25;;;;;18.75;78.56;101608.34;5019322;28;49756;-76
2022/10/17 08:16:14;;;;;;;;;9.75;6.75;;;;;17.93;78.62;101489.47;5017480;28;49703;-77
2022/10/17 08:18:41;;;;;;;;;6.75;6.75;;;;;19.02;78.93;101665.13;5012056;28;50207;-79
2022/10/17 08:21:07;;;;;;;;;7.25;7.25;;;;;19.50;79.08;101743.22;5012751;28;49913;-76
2022/10/17 08:23:33;;;;;;;;;10.00;8.25;;;;;19.55;78.53;101786.72;5011744;28;49831;-79
2022/10/17 08:26:00;;;;;;;;;11.25;10.00;;;;;19.38;78.51;101729.00;5030808;28;49875;-78
2022/10/17 08:28:25;;;;;;;;;7.75;7.75;;;;;18.29;78.18;101543.56;5006870;28;49741;-76
2022/10/17 08:30:50;;;;;;;;;13.25;9.75;;;;;18.86;77.96;101616.34;5009260;28;52419;-76
2022/10/17 08:33:16;;;;;;;;;9.00;7.00;;;;;19.25;78.16;101697.94;5010106;28;49925;-77
2022/10/17 08:35:41;;;;;;;;;6.50;6.25;;;;;19.35;77.65;101709.50;5009804;28;49725;-76
2022/10/17 08:38:07;;;;;;;;;7.00;7.00;;;;;19.88;77.50;101775.16;5011215;28;49834;-83
2022/10/17 08:40:37;;;;;;;;;6.00;5.00;;;;;19.13;77.06;101634.09;5012782;28;51847;-78
2022/10/17 08:43:21;;;;;;;;;7.00;7.00;;;;;20.00;76.75;101768.06;5011862;28;49831;-79
2022/10/17 08:45:53;;;;;;;;;7.50;7.25;;;;;20.11;76.92;101770.69;5018684;28;49666;-77
2022/10/17 08:48:23;;;;;;;;;7.00;7.00;;;;;20.21;76.69;101768.88;5028586;28;50033;-76
2022/10/17 08:50:59;;;;;;;;;7.00;5.25;;;;;20.17;76.26;101740.44;5021066;28;50028;-75
2022/10/17 08:53:50;;;;;;;;;7.25;6.25;;;;;20.43;75.84;101769.72;5016587;28;50033;-78
2022/10/17 08:56:32;;;;;;;;;5.50;5.50;;;;;20.35;75.59;101759.06;5010668;28;49880;-82
2022/10/17 08:59:06;;;;;;;;;7.00;7.00;;;;;20.41;75.07;101777.72;5002429;28;50027;-82
2022/10/17 09:01:35;;;;;;;;;6.50;6.50;;;;;20.38;75.13;101782.19;5009661;28;51324;-80
2022/10/17 09:04:13;;;;;;;;;9.00;6.25;;;;;20.37;74.97;101797.28;5012275;28;50101;-79
2022/10/17 09:06:48;;;;;;;;;5.50;5.50;;;;;20.08;75.16;101760.06;5011351;28;49996;-77
2022/10/17 09:09:38;;;;;;;;;4.25;4.25;;;;;20.35;75.52;101798.16;5007717;28;50004;-80
2022/10/17 09:12:16;;;;;;;;;6.00;6.00;;;;;19.89;75.54;101737.00;5015117;28;49999;-79
2022/10/17 09:15:09;;;;;;;;;7.00;7.00;;;;;20.20;75.63;101805.34;5010978;28;49801;-81
2022/10/17 09:17:37;;;;;;;;;6.25;5.25;;;;;20.23;76.01;101842.66;5006981;28;49900;-78
2022/10/17 09:20:11;;;;;;;;;7.25;7.25;;;;;19.91;76.75;101786.72;5012457;28;50048;-81
2022/10/17 09:23:00;;;;;;;;;6.50;6.25;;;;;19.34;76.85;101697.94;5012446;28;49831;-78
2022/10/17 09:25:27;;;;;;;;;6.00;6.00;;;;;20.17;77.29;101855.09;5012026;28;49832;-78
2022/10/17 09:28:09;;;;;;;;;9.50;9.25;;;;;19.97;77.30;101816.00;5012140;28;49797;-79
2022/10/17 09:30:55;;;;;;;;;4.00;1.00;;;;;19.85;77.71;101840.00;5012295;28;49793;-81
2022/10/17 09:33:27;;;;;;;;;10.50;7.50;;;;;19.60;77.71;101763.69;5011785;28;50404;-76
2022/10/17 09:35:55;;;;;;;;;9.75;8.50;;;;;19.39;77.70;101738.75;5012350;28;49755;-80
2022/10/17 09:38:23;;;;;;;;;6.00;6.00;;;;;20.13;78.02;101866.66;5012110;28;49751;-81
2022/10/17 09:40:59;;;;;;;;;7.25;7.25;;;;;20.14;78.61;101892.41;5010918;28;49922;-81
2022/10/17 09:43:25;;;;;;;;;8.75;7.75;;;;;19.42;79.00;101802.69;5011684;28;50494;-75
2022/10/17 09:46:18;;;;;;;;;7.00;6.00;;;;;20.15;79.48;101884.41;5011529;28;49770;-76
2022/10/17 09:48:57;;;;;;;;;6.25;6.25;;;;;19.10;79.54;101705.91;5006306;28;49587;-76
2022/10/17 09:51:26;;;;;;;;;8.50;6.50;;;;;18.63;79.99;101604.78;5008351;28;49849;-80
2022/10/17 09:54:00;;;;;;;;;8.25;6.75;;;;;20.25;80.04;101901.28;5026887;28;51763;-79
2022/10/17 09:56:25;;;;;;;;;8.00;7.00;;;;;20.20;80.14;101879.97;5010195;28;49756;-81
2022/10/17 09:58:56;;;;;;;;;13.00;9.75;;;;;19.62;80.91;101783.19;5011682;28;49760;-81
2022/10/17 10:01:30;;;;;;;;;7.75;6.00;;;;;19.38;80.92;101729.00;5027226;28;50271;-83
2022/10/17 10:04:16;;;;;;;;;10.00;7.50;;;;;19.90;81.40;101827.59;5011396;28;50688;-81
2022/10/17 10:07:01;;;;;;;;;9.25;9.00;;;;;20.27;80.76;101884.44;4987266;28;49965;-78
2022/10/17 10:09:30;;;;;;;;;9.50;8.75;;;;;19.70;80.99;101802.75;5010769;28;49909;-77
2022/10/17 10:11:57;;;;;;;;;6.50;6.50;;;;;20.08;81.23;101879.13;5009479;28;49976;-77
2022/10/17 10:14:35;;;;;;;;;8.50;6.25;;;;;20.15;81.41;101913.75;5011153;28;50001;-74
2022/10/17 10:17:24;;;;;;;;;9.00;7.50;;;;;20.16;81.70;101901.28;5011487;28;49944;-76
2022/10/17 10:19:50;;;;;;;;;10.75;9.50;;;;;19.91;81.69;101855.13;5011122;28;49867;-76
2022/10/17 10:22:18;;;;;;;;;10.50;7.25;;;;;20.05;82.18;101873.75;5011431;28;49872;-76
2022/10/17 10:24:43;;;;;;;;;8.00;8.00;;;;;19.65;81.75;101821.38;5010880;28;50659;-75
2022/10/17 10:27:15;;;;;;;;;9.00;9.00;;;;;19.51;82.37;101807.13;5010578;28;49761;-76
2022/10/17 10:29:48;;;;;;;;;11.50;10.25;;;;;19.69;81.74;101817.84;5011195;28;49908;-76
2022/10/17 10:32:30;;;;;;;;;10.75;8.25;;;;;19.83;82.00;101863.13;5005036;28;49913;-77
2022/10/17 10:35:20;;;;;;;;;8.25;8.25;;;;;20.26;82.63;101935.06;5006917;28;49925;-76
2022/10/17 10:37:51;;;;;;;;;6.75;6.75;;;;;19.78;82.49;101858.66;5004642;28;49806;-78
2022/10/17 10:40:28;;;;;;;;;11.25;8.75;;;;;20.06;83.40;101937.72;5005930;28;49747;-77
2022/10/17 10:42:56;;;;;;;;;12.00;12.00;;;;;19.23;82.85;101782.25;5013396;28;49739;-73
2022/10/17 10:45:40;;;;;;;;;9.25;9.25;;;;;20.26;83.30;101965.28;5011421;28;51528;-79
2022/10/17 10:48:19;;;;;;;;;10.50;10.50;;;;;20.23;83.20;101959.06;5011700;28;49780;-75
2022/10/17 10:50:49;;;;;;;;;13.00;11.75;;;;;19.53;83.17;101873.72;5009894;28;49709;-74
2022/10/17 10:53:39;;;;;;;;;9.50;9.00;;;;;20.22;83.23;101968.84;5013053;28;50140;-75
2022/10/17 10:56:12;;;;;;;;;12.50;12.50;;;;;19.81;83.67;101912.84;5009771;28;49967;-74
2022/10/17 10:58:55;;;;;;;;;9.75;9.00;;;;;20.06;83.71;101928.84;5021680;28;49541;-74
2022/10/17 11:01:50;;;;;;;;;16.75;11.25;;;;;20.36;83.66;101976.84;5022406;28;49585;-73
2022/10/17 11:04:42;;;;;;;;;13.25;10.50;;;;;20.44;82.99;101971.53;5021874;28;49575;-76
2022/10/17 11:07:18;;;;;;;;;12.00;11.00;;;;;20.20;83.16;101929.75;5009698;28;49855;-75
2022/10/17 11:09:48;;;;;;;;;12.50;9.50;;;;;20.57;82.59;101970.66;5010753;28;49812;-74
2022/10/17 11:13:06;;;;;;;;;12.75;11.25;;;;;19.91;82.80;101841.81;4997702;28;50047;-75
2022/10/17 11:15:57;;;;;;;;;12.50;11.50;;;;;20.16;82.59;101886.19;4996550;28;49462;-77
2022/10/17 11:18:39;;;;;;;;;14.75;11.75;;;;;20.84;81.50;101967.03;5022138;28;49966;-73
2022/10/17 11:21:13;;;;;;;;;12.75;10.50;;;;;20.32;82.20;101859.53;5028079;28;49230;-75
2022/10/17 11:23:45;;;;;;;;;15.25;9.50;;;;;21.04;82.50;101969.66;5041369;28;49426;-73
2022/10/17 11:26:32;;;;;;;;;12.25;12.25;;;;;19.97;81.67;101796.47;5028285;28;49473;-73
2022/10/17 11:29:02;;;;;;;;;12.00;11.00;;;;;20.83;81.57;101906.53;5008074;28;49880;-74
2022/10/17 11:31:32;;;;;;;;;11.00;11.00;;;;;21.24;81.36;101975.81;5017792;28;49647;-80
2022/10/17 11:34:24;;;;;;;;;12.25;10.00;;;;;21.33;80.66;101986.50;5020005;28;49350;-75
2022/10/17 11:36:53;;;;;;;;;10.75;9.75;;;;;20.62;80.54;101890.59;5015777;28;49831;-73
2022/10/17 11:39:26;;;;;;;;;13.50;11.00;;;;;20.39;79.91;101853.28;5020655;28;50807;-72
2022/10/17 11:42:26;;;;;;;;;10.00;10.00;;;;;21.36;80.13;101997.16;5016843;28;49917;-72
2022/10/17 11:44:59;;;;;;;;;13.00;11.75;;;;;21.35;79.95;101989.16;5010155;28;49541;-73
2022/10/17 11:47:45;;;;;;;;;12.25;12.00;;;;;20.37;80.25;101837.28;5017307;28;49984;-78
2022/10/17 11:50:28;;;;;;;;;12.25;11.00;;;;;21.37;79.60;101987.38;5020710;28;50216;-76
2022/10/17 11:53:10;;;;;;;;;12.75;11.75;;;;;21.07;79.73;101929.59;5015975;28;49331;-77
2022/10/17 11:55:37;;;;;;;;;10.00;10.00;;;;;21.45;79.67;101976.66;5014799;28;49687;-73
2022/10/17 11:58:15;;;;;;;;;11.50;10.50;;;;;20.80;78.89;101877.19;5009521;28;49969;-73
2022/10/17 12:00:49;;;;;;;;;8.50;8.50;;;;;21.43;79.08;102001.59;5010956;28;50067;-73
2022/10/17 12:03:45;;;;;;;;;11.75;11.75;;;;;21.43;79.31;102027.41;5011879;28;49800;-72
2022/10/17 12:06:14;;;;;;;;;18.25;13.75;;;;;21.42;79.93;102045.25;5004941;28;49756;-76
2022/10/17 12:08:47;;;;;;;;;13.25;12.25;;;;;21.09;79.72;102000.78;5013813;28;49759;-74
2022/10/17 12:11:41;;;;;;;;;11.25;9.50;;;;;21.41;79.66;102056.78;5012492;28;50418;-72
2022/10/17 12:14:33;;;;;;;;;12.00;12.00;;;;;20.24;79.60;101884.41;5008328;28;49802;-74
2022/10/17 12:17:02;;;;;;;;;12.50;11.50;;;;;20.45;79.44;101898.63;5006392;28;50109;-72
2022/10/17 12:19:31;;;;;;;;;12.25;12.25;;;;;20.60;79.83;101916.41;4997817;28;49880;-71
2022/10/17 12:22:01;;;;;;;;;12.25;12.25;;;;;20.97;79.51;101982.13;5020355;28;49626;-72
2022/10/17 12:24:44;;;;;;;;;7.25;7.25;;;;;21.20;79.57;102018.56;5016757;28;49732;-75
2022/10/17 12:27:36;;;;;;;;;8.00;8.00;;;;;20.96;79.29;101980.38;5018595;28;49894;-73
2022/10/17 12:30:14;;;;;;;;;9.50;9.00;;;;;21.10;80.12;102023.03;5025745;28;49755;-74
2022/10/17 12:32:56;;;;;;;;;13.75;11.50;;;;;21.32;79.55;102059.47;5019006;28;50017;-73
2022/10/17 12:35:23;;;;;;;;;13.00;11.50;;;;;21.33;80.34;102044.38;5016010;28;49934;-73
2022/10/17 12:37:51;;;;;;;;;11.00;11.00;;;;;21.28;79.87;102040.81;5016709;28;49748;-74
2022/10/17 12:40:34;;;;;;;;;9.75;8.25;;;;;21.25;80.03;102030.13;5011503;28;49939;-73
2022/10/17 12:43:02;;;;;;;;;10.25;10.25;;;;;21.05;80.61;101999.03;5010492;28;51103;-69
2022/10/17 12:45:52;;;;;;;;;8.25;8.00;;;;;21.14;80.93;102030.16;5008756;28;50173;-69
2022/10/17 12:48:33;;;;;;;;;10.00;10.00;;;;;21.11;80.81;102030.13;5009450;28;49990;-70
2022/10/17 12:51:20;;;;;;;;;12.50;12.50;;;;;21.12;80.59;102031.91;5015007;28;49655;-68
2022/10/17 12:53:45;;;;;;;;;10.75;10.75;;;;;21.06;80.75;102026.63;5009362;28;49680;-70
2022/10/17 12:56:20;;;;;;;;;12.25;9.00;;;;;21.00;81.15;102022.16;5010025;28;49964;-69
2022/10/17 12:58:49;;;;;;;;;11.25;11.00;;;;;20.72;81.30;101964.38;5011496;28;49828;-68
2022/10/17 13:01:35;;;;;;;;;12.50;12.50;;;;;20.80;81.93;101995.50;5010026;28;49888;-69
2022/10/17 13:04:04;;;;;;;;;9.75;8.75;;;;;20.53;81.24;101959.09;5010327;28;49933;-70
2022/10/17 13:06:38;;;;;;;;;14.50;12.50;;;;;20.49;81.92;101961.78;5012307;28;50152;-68
2022/10/17 13:09:08;;;;;;;;;13.25;12.50;;;;;20.80;82.19;102048.00;5017191;28;49483;-71
2022/10/17 13:11:36;;;;;;;;;10.00;10.00;;;;;20.88;82.11;102042.66;5017992;28;49665;-73
2022/10/17 13:14:09;;;;;;;;;10.00;7.00;;;;;20.62;82.62;101994.66;5015028;28;49881;-69
2022/10/17 13:16:37;;;;;;;;;10.75;9.25;;;;;20.33;82.17;101950.19;5012183;28;49801;-70
2022/10/17 13:19:12;;;;;;;;;12.00;10.00;;;;;20.67;82.41;101984.88;5012510;28;49634;-71
2022/10/17 13:21:38;;;;;;;;;13.25;12.00;;;;;21.06;81.69;102047.97;5013168;28;50015;-67
2022/10/17 13:24:39;;;;;;;;;11.00;11.00;;;;;21.04;81.85;102039.97;5020834;28;51034;-69
2022/10/17 13:27:25;;;;;;;;;7.75;6.50;;;;;20.81;81.65;101991.06;4996365;28;49441;-70
2022/10/17 13:29:51;;;;;;;;;7.50;7.50;;;;;20.94;80.22;102015.94;5017006;28;49728;-69
2022/10/17 13:32:16;;;;;;;;;8.25;8.25;;;;;19.73;82.87;101832.91;5019987;28;50227;-67
2022/10/17 13:34:42;;;;;;;;;9.75;8.50;;;;;20.52;81.76;101978.66;5017819;28;49714;-69
2022/10/17 13:37:12;;;;;;;;;8.75;8.50;;;;;20.69;81.45;101991.97;5017159;28;49872;-68
2022/10/17 13:39:40;;;;;;;;;14.00;9.50;;;;;20.96;80.05;102036.41;5007912;28;49918;-68
2022/10/17 13:42:28;;;;;;;;;7.75;7.75;;;;;20.94;80.47;102053.31;5001954;28;49926;-68
2022/10/17 13:44:54;;;;;;;;;8.25;8.25;;;;;20.00;80.48;101909.31;5002777;28;50012;-70
2022/10/17 13:47:22;;;;;;;;;7.50;7.25;;;;;20.61;80.35;101982.19;5016197;28;49817;-70
2022/10/17 13:49:51;;;;;;;;;9.50;8.25;;;;;20.73;80.87;102057.78;5019376;28;49371;-69
2022/10/17 13:52:20;;;;;;;;;6.25;6.25;;;;;20.70;81.05;102068.47;5024131;28;49453;-67
2022/10/17 13:54:50;;;;;;;;;8.75;8.00;;;;;20.68;81.46;102088.03;5018648;28;49923;-70
2022/10/17 13:57:26;;;;;;;;;12.50;11.50;;;;;20.62;82.59;102106.72;5017950;28;49672;-69
2022/10/17 13:59:58;;;;;;;;;9.50;8.00;;;;;20.53;82.82;102096.91;5006218;28;49874;-72
2022/10/17 14:02:26;;;;;;;;;12.25;10.75;;;;;20.56;82.73;102103.16;5010337;28;49768;-75
2022/10/17 14:05:12;;;;;;;;;9.75;8.00;;;;;20.25;82.84;102066.63;5012238;28;50922;-74
2022/10/17 14:07:53;;;;;;;;;8.75;8.75;;;;;20.54;83.84;102109.34;5011824;28;49933;-73
2022/10/17 14:10:25;;;;;;;;;12.50;12.50;;;;;19.35;83.05;101917.16;5004149;28;49741;-74
2022/10/17 14:12:53;;;;;;;;;11.25;9.50;;;;;20.45;83.36;102086.22;5012632;28;49787;-75
2022/10/17 14:15:22;;;;;;;;;11.50;10.75;;;;;20.07;83.63;102037.25;5010269;28;49963;-73
2022/10/17 14:17:55;;;;;;;;;8.50;8.50;;;;;20.67;83.28;102119.19;5010988;28;49903;-71
2022/10/17 14:20:22;;;;;;;;;14.25;9.00;;;;;20.21;84.65;102036.41;5011034;28;49676;-73
2022/10/17 14:22:48;;;;;;;;;8.50;8.50;;;;;20.65;83.57;102107.59;5010793;28;49721;-70
2022/10/17 14:25:37;;;;;;;;;8.75;8.75;;;;;20.62;83.12;102075.56;5009327;28;49766;-71
2022/10/17 14:28:14;;;;;;;;;12.50;11.00;;;;;20.30;82.84;102009.75;5019028;28;49653;-75
2022/10/17 14:30:45;;;;;;;;;14.75;10.00;;;;;20.50;82.54;102063.13;5007103;28;49785;-70
2022/10/17 14:33:25;;;;;;;;;9.00;8.75;;;;;20.47;83.17;102065.81;5014618;28;49978;-76
2022/10/17 14:35:57;;;;;;;;;11.00;8.75;;;;;19.85;83.94;101993.69;5013746;28;51911;-77
2022/10/17 14:38:23;;;;;;;;;14.75;14.75;;;;;20.47;84.13;102073.81;5009689;28;49678;-79
2022/10/17 14:41:07;;;;;;;;;11.00;11.00;;;;;20.23;84.15;102055.06;5004337;28;49869;-70
2022/10/17 14:43:33;;;;;;;;;13.75;12.75;;;;;20.14;85.41;102066.59;5010513;28;49736;-73
2022/10/17 14:46:00;;;;;;;;;11.25;10.25;;;;;19.77;84.91;102025.63;5017128;28;50713;-76
2022/10/17 14:48:30;;;;;;;;;14.50;11.25;;;;;19.49;85.34;101982.00;5018124;28;49661;-77
2022/10/17 14:51:09;;;;;;;;;12.50;12.50;;;;;20.21;85.38;102105.72;5010096;28;49895;-73
2022/10/17 14:53:35;;;;;;;;;9.00;9.00;;;;;19.74;86.05;102046.94;5010512;28;49899;-76
2022/10/17 14:56:04;;;;;;;;;14.75;11.50;;;;;20.13;86.76;102114.59;5012742;28;49992;-71
2022/10/17 14:58:32;;;;;;;;;11.00;11.00;;;;;20.07;86.63;102106.56;5009930;28;49859;-77
2022/10/17 15:00:59;;;;;;;;;15.00;13.00;;;;;19.66;86.16;102064.69;5010411;28;50039;-73
2022/10/17 15:03:25;;;;;;;;;10.75;10.75;;;;;19.91;86.33;102100.31;5010478;28;49823;-72
2022/10/17 15:05:53;;;;;;;;;15.00;14.00;;;;;19.26;86.18;101995.22;5010164;28;49859;-74
2022/10/17 15:08:20;;;;;;;;;10.00;10.00;;;;;18.69;86.23;101916.88;5014486;28;49797;-72
2022/10/17 15:10:47;;;;;;;;;12.00;10.00;;;;;19.32;85.43;101999.72;5010219;28;50183;-77
2022/10/17 15:13:14;;;;;;;;;13.50;13.50;;;;;19.91;86.26;102105.63;5010317;28;49866;-77
2022/10/17 15:15:40;;;;;;;;;7.75;7.75;;;;;19.94;86.56;102124.28;5000135;28;50717;-76
2022/10/17 15:18:09;;;;;;;;;10.25;8.75;;;;;19.92;86.06;102121.63;5003676;28;49777;-77
2022/10/17 15:20:34;;;;;;;;;11.50;10.50;;;;;19.90;85.70;102104.75;5008820;28;49712;-72
2022/10/17 15:23:01;;;;;;;;;13.50;12.75;;;;;19.85;85.99;102109.16;5017304;28;49686;-73
2022/10/17 15:25:29;;;;;;;;;17.00;16.75;;;;;19.59;86.94;102071.78;5019192;28;50566;-76
2022/10/17 15:27:55;;;;;;;;;12.00;11.75;;;;;19.61;86.04;102087.75;5024378;28;49561;-73
2022/10/17 15:30:28;;;;;;;;;12.00;11.25;;;;;19.81;86.62;102130.47;5010696;28;50109;-72
2022/10/17 15:32:54;;;;;;;;;11.00;11.00;;;;;19.77;86.68;102144.66;5008900;28;50074;-72
2022/10/17 15:35:21;;;;;;;;;11.00;7.50;;;;;19.76;87.11;102148.19;5008967;28;50362;-72
2022/10/17 15:37:46;;;;;;;;;12.50;12.50;;;;;19.63;86.89;102118.84;5010867;28;49654;-73
2022/10/17 15:40:22;;;;;;;;;15.25;12.75;;;;;19.47;88.25;102092.06;5010699;28;49806;-81
2022/10/17 15:42:48;;;;;;;;;9.50;9.00;;;;;19.36;87.73;102074.25;5005431;28;51467;-76
2022/10/17 15:45:15;;;;;;;;;14.00;14.00;;;;;19.37;87.86;102085.81;5006006;28;51925;-84
2022/10/17 15:48:16;;;;;;;;;14.75;14.75;;;;;19.70;87.99;102131.31;5027593;28;49803;-85
2022/10/17 15:50:41;;;;;;;;;9.25;9.25;;;;;19.60;87.87;102105.50;5002227;28;49781;-74
2022/10/17 15:53:15;;;;;;;;;13.75;10.50;;;;;18.76;87.76;101974.56;5010075;28;49843;-75
2022/10/17 15:55:41;;;;;;;;;13.75;11.75;;;;;18.88;87.94;102010.97;5008954;28;49954;-77
2022/10/17 15:58:13;;;;;;;;;12.25;9.75;;;;;19.51;87.47;102089.44;5006684;28;50482;-75
2022/10/17 16:00:39;;;;;;;;;8.25;7.25;;;;;19.66;87.33;102113.50;5008562;28;49824;-69
2022/10/17 16:03:04;;;;;;;;;14.00;11.50;;;;;19.59;87.07;102110.81;5015100;28;49721;-72
2022/10/17 16:05:29;;;;;;;;;12.00;12.00;;;;;19.61;87.25;102125.06;5016728;28;56463;-71
2022/10/17 16:07:56;;;;;;;;;10.50;10.50;;;;;19.57;87.74;102134.78;5012113;28;50074;-73
2022/10/17 16:10:22;;;;;;;;;11.75;11.00;;;;;19.48;87.32;102126.69;5012229;28;49795;-75
2022/10/17 16:12:48;;;;;;;;;13.00;11.00;;;;;19.43;87.13;102120.47;5012061;28;50120;-73
2022/10/17 16:15:25;;;;;;;;;10.50;10.50;;;;;19.53;87.37;102140.94;5007224;28;50506;-75
2022/10/17 16:17:52;;;;;;;;;10.75;10.00;;;;;19.51;87.70;102136.50;5000203;28;49722;-77
2022/10/17 16:20:18;;;;;;;;;10.75;10.50;;;;;19.40;87.16;102126.69;5002789;28;49973;-72
2022/10/17 16:22:45;;;;;;;;;10.75;10.50;;;;;19.26;87.52;102108.81;5004483;28;50418;-70
2022/10/17 16:25:19;;;;;;;;;9.75;7.75;;;;;19.08;87.79;102089.19;5014767;28;49813;-73
2022/10/17 16:27:49;;;;;;;;;14.00;12.50;;;;;19.31;88.11;102133.72;5011454;28;49826;-78
2022/10/17 16:30:15;;;;;;;;;11.00;10.50;;;;;19.42;87.98;102148.00;5010319;28;49740;-70
2022/10/17 16:32:42;;;;;;;;;11.75;11.50;;;;;19.41;87.36;102149.75;5013004;28;49816;-71
2022/10/17 16:35:08;;;;;;;;;10.50;10.00;;;;;19.42;87.62;102148.00;5012358;28;49934;-71
2022/10/17 16:37:34;;;;;;;;;11.00;9.25;;;;;19.43;87.54;102158.66;5018703;28;49814;-73